Time;durP1;ratioP1;P1;durP2;ratioP2;P2;SDS_P1;SDS_P2;PMS_P1;PMS_P2;Temp;Humidity;BMP_temperature;BMP_pressure;BME280_temperature;BME280_humidity;BME280_pressure;Samples;Min_cycle;Max_cycle;Signal;HPM_P1;HPM_P2
2021/12/31 00:00:46;;;;;;;13.40;6.50;;;2.30;99.90;;;;;;5034468;28;20486;-78
2021/12/31 00:03:12;;;;;;;15.48;7.53;;;2.40;99.90;;;;;;5033519;28;20037;-78
2021/12/31 00:05:38;;;;;;;13.18;7.00;;;2.30;99.90;;;;;;5034667;28;20064;-77
2021/12/31 00:08:04;;;;;;;12.93;7.05;;;2.30;99.90;;;;;;5034415;28;20057;-80
2021/12/31 00:10:29;;;;;;;13.80;7.20;;;2.30;99.90;;;;;;5035879;28;20025;-79
2021/12/31 00:12:56;;;;;;;13.27;7.50;;;2.30;99.90;;;;;;5034428;28;20495;-79
2021/12/31 00:15:22;;;;;;;10.60;5.40;;;2.30;99.90;;;;;;5036471;28;20024;-79
2021/12/31 00:17:48;;;;;;;9.75;4.85;;;2.30;99.90;;;;;;5036665;28;20057;-80
2021/12/31 00:20:18;;;;;;;8.85;4.43;;;2.20;99.90;;;;;;5030183;28;20052;-77
2021/12/31 00:23:00;;;;;;;8.23;3.95;;;2.20;99.90;;;;;;5030099;28;20033;-77
2021/12/31 00:25:26;;;;;;;7.72;3.97;;;2.10;99.90;;;;;;5033559;28;20064;-78
2021/12/31 00:27:51;;;;;;;8.35;3.55;;;2.10;99.90;;;;;;5033727;28;20026;-78
2021/12/31 00:30:17;;;;;;;7.30;3.35;;;2.10;99.90;;;;;;5033276;28;20030;-80
2021/12/31 00:32:43;;;;;;;9.77;4.25;;;2.20;99.90;;;;;;5034357;28;20561;-80
2021/12/31 00:35:10;;;;;;;8.57;3.90;;;2.20;99.90;;;;;;5023988;28;20075;-79
2021/12/31 00:37:38;;;;;;;7.10;3.78;;;2.20;99.90;;;;;;5035995;28;20021;-78
2021/12/31 00:40:08;;;;;;;6.45;3.10;;;2.20;99.90;;;;;;5032304;28;20033;-77
2021/12/31 00:42:33;;;;;;;7.13;3.38;;;2.20;99.90;;;;;;5032616;28;20026;-77
2021/12/31 00:44:59;;;;;;;6.78;3.13;;;2.30;99.90;;;;;;5033967;28;20030;-78
2021/12/31 00:47:25;;;;;;;6.85;3.40;;;2.30;99.90;;;;;;5033587;28;20025;-78
2021/12/31 00:49:51;;;;;;;6.88;3.25;;;2.20;99.90;;;;;;5033744;28;20029;-78
2021/12/31 00:52:16;;;;;;;8.30;3.80;;;2.20;99.90;;;;;;5033532;28;20021;-78
2021/12/31 00:54:43;;;;;;;9.45;4.03;;;2.20;99.90;;;;;;5033428;28;20048;-78
2021/12/31 00:57:09;;;;;;;6.47;3.38;;;2.20;99.90;;;;;;5033801;28;20040;-77
2021/12/31 00:59:35;;;;;;;8.73;4.40;;;2.30;99.90;;;;;;5033709;28;20405;-78
2021/12/31 01:02:06;;;;;;;7.82;4.40;;;2.30;99.90;;;;;;5030314;28;20037;-78
2021/12/31 01:04:32;;;;;;;8.05;4.38;;;2.20;99.90;;;;;;5031860;28;20018;-78
2021/12/31 01:06:58;;;;;;;8.63;4.68;;;2.20;99.90;;;;;;5030735;28;20091;-78
2021/12/31 01:09:25;;;;;;;9.07;4.60;;;2.20;99.90;;;;;;5030879;28;20021;-78
2021/12/31 01:11:50;;;;;;;9.73;4.93;;;2.20;99.90;;;;;;5033518;28;20026;-78
2021/12/31 01:14:28;;;;;;;11.63;5.60;;;2.20;99.90;;;;;;5033959;28;20528;-78
2021/12/31 01:16:59;;;;;;;11.30;6.15;;;2.30;99.90;;;;;;5033294;28;20025;-78
2021/12/31 01:21:50;;;;;;;9.75;4.55;;;2.30;99.90;;;;;;5027229;28;20400;-78
2021/12/31 01:24:18;;;;;;;9.63;4.10;;;2.30;99.90;;;;;;5034633;28;20393;-77
2021/12/31 01:26:44;;;;;;;7.90;3.10;;;2.30;99.90;;;;;;5036095;28;20029;-78
2021/12/31 01:29:10;;;;;;;6.70;3.17;;;2.20;99.90;;;;;;5035244;28;20048;-78
2021/12/31 01:31:35;;;;;;;5.57;2.85;;;2.30;99.90;;;;;;5022120;28;20382;-79
2021/12/31 01:34:01;;;;;;;6.25;3.05;;;2.20;99.90;;;;;;5037293;28;20029;-78
2021/12/31 01:36:27;;;;;;;6.28;3.08;;;2.20;99.90;;;;;;5035895;28;20024;-78
2021/12/31 01:38:53;;;;;;;7.90;3.22;;;2.10;99.90;;;;;;5037777;28;20026;-80
2021/12/31 01:41:20;;;;;;;7.60;3.90;;;2.10;99.90;;;;;;5033879;28;20072;-80
2021/12/31 01:43:46;;;;;;;9.27;3.92;;;2.20;99.90;;;;;;5038458;28;20112;-80
2021/12/31 01:46:12;;;;;;;8.90;3.67;;;2.20;99.90;;;;;;5036654;28;20025;-77
2021/12/31 01:49:03;;;;;;;6.05;3.58;;;2.20;99.90;;;;;;5036664;28;20520;-78
2021/12/31 01:51:30;;;;;;;7.80;3.75;;;2.10;99.90;;;;;;5035710;28;20032;-77
2021/12/31 01:53:55;;;;;;;7.85;4.18;;;2.10;99.90;;;;;;5038795;28;20032;-80
2021/12/31 01:56:23;;;;;;;5.20;3.50;;;2.10;99.90;;;;;;5040326;28;20022;-80
2021/12/31 01:58:55;;;;;;;6.80;2.95;;;2.10;99.90;;;;;;5038954;28;20040;-80
2021/12/31 02:01:22;;;;;;;6.63;3.67;;;2.10;99.90;;;;;;5038161;28;20029;-80
2021/12/31 02:03:49;;;;;;;7.28;3.45;;;2.00;99.90;;;;;;5038207;28;20033;-80
2021/12/31 02:06:14;;;;;;;9.93;2.85;;;2.00;99.90;;;;;;5036660;28;20049;-77
2021/12/31 02:08:40;;;;;;;5.40;2.60;;;2.00;99.90;;;;;;5036244;28;20026;-77
2021/12/31 02:11:06;;;;;;;5.65;2.75;;;2.00;99.90;;;;;;5027477;28;20034;-77
2021/12/31 02:13:31;;;;;;;6.63;2.78;;;1.90;99.90;;;;;;5034585;28;20037;-78
2021/12/31 02:15:57;;;;;;;6.35;2.70;;;1.90;99.90;;;;;;5036499;28;20508;-80
2021/12/31 02:18:23;;;;;;;8.27;3.42;;;1.90;99.90;;;;;;5039262;28;20057;-79
2021/12/31 02:20:49;;;;;;;6.25;2.97;;;1.90;99.90;;;;;;5031419;28;20033;-79
2021/12/31 02:23:23;;;;;;;6.07;2.83;;;1.90;99.90;;;;;;5036869;28;20029;-78
2021/12/31 02:25:49;;;;;;;5.22;2.80;;;1.90;99.90;;;;;;5035204;28;20458;-78
2021/12/31 02:28:15;;;;;;;5.60;2.92;;;1.90;99.90;;;;;;5037530;28;20034;-79
2021/12/31 02:30:42;;;;;;;5.78;2.70;;;1.90;99.90;;;;;;5037899;28;20020;-80
2021/12/31 02:33:08;;;;;;;6.22;3.17;;;1.90;99.90;;;;;;5036651;28;20049;-79
2021/12/31 02:35:35;;;;;;;6.70;3.50;;;1.90;99.90;;;;;;5036230;28;20037;-80
2021/12/31 02:38:01;;;;;;;7.85;3.83;;;1.90;99.90;;;;;;5035126;28;20022;-78
2021/12/31 02:40:28;;;;;;;6.72;3.83;;;1.80;99.90;;;;;;5035032;28;20630;-77
2021/12/31 02:42:55;;;;;;;7.90;4.10;;;1.80;99.90;;;;;;5034530;28;20496;-77
2021/12/31 02:45:28;;;;;;;8.63;4.20;;;1.90;99.90;;;;;;5034861;28;20052;-77
2021/12/31 02:47:55;;;;;;;8.07;4.10;;;1.90;99.90;;;;;;5034832;28;20433;-77
2021/12/31 02:50:30;;;;;;;10.05;4.18;;;1.90;99.90;;;;;;5034246;28;20021;-77
2021/12/31 02:52:56;;;;;;;8.77;4.00;;;1.90;99.90;;;;;;5033595;28;20017;-78
2021/12/31 02:55:24;;;;;;;7.88;4.13;;;1.90;99.90;;;;;;5035223;28;20465;-78
2021/12/31 02:57:51;;;;;;;9.43;4.70;;;1.90;99.90;;;;;;5034999;28;20474;-78
2021/12/31 03:00:17;;;;;;;11.07;5.75;;;1.90;99.90;;;;;;5034073;28;20064;-78
2021/12/31 03:02:43;;;;;;;10.15;5.38;;;1.80;99.90;;;;;;5033992;28;20045;-78
2021/12/31 03:05:10;;;;;;;9.68;5.20;;;1.80;99.90;;;;;;5033495;28;20026;-77
2021/12/31 03:07:37;;;;;;;10.55;5.70;;;1.90;99.90;;;;;;5035030;28;20029;-77
2021/12/31 03:10:07;;;;;;;10.68;5.82;;;1.90;99.90;;;;;;5034378;28;20029;-77
2021/12/31 03:12:33;;;;;;;9.87;5.23;;;1.90;99.90;;;;;;5034084;28;20389;-77
2021/12/31 03:14:59;;;;;;;10.63;6.97;;;1.90;99.90;;;;;;5034977;28;20033;-77
2021/12/31 03:17:26;;;;;;;10.43;6.18;;;1.90;99.90;;;;;;5034166;28;20025;-78
2021/12/31 03:20:07;;;;;;;9.85;6.05;;;1.90;99.90;;;;;;5034506;28;20392;-77
2021/12/31 03:22:33;;;;;;;9.88;5.88;;;2.00;99.90;;;;;;5030730;28;20151;-77
2021/12/31 03:24:58;;;;;;;10.88;5.60;;;2.00;99.90;;;;;;5034364;28;20104;-77
2021/12/31 03:27:24;;;;;;;17.30;8.98;;;2.00;99.90;;;;;;5031974;28;20060;-77
2021/12/31 03:29:50;;;;;;;15.50;7.55;;;2.00;99.90;;;;;;5033542;28;20029;-78
2021/12/31 03:32:15;;;;;;;13.52;7.32;;;2.00;99.90;;;;;;5033089;28;20026;-78
2021/12/31 03:34:41;;;;;;;13.43;7.40;;;2.00;99.90;;;;;;5032637;28;20030;-77
2021/12/31 03:37:06;;;;;;;13.02;6.63;;;2.00;99.90;;;;;;5032508;28;20026;-77
2021/12/31 03:39:32;;;;;;;10.50;6.18;;;2.00;99.90;;;;;;5031985;28;20389;-77
2021/12/31 03:41:58;;;;;;;9.00;4.90;;;2.00;99.90;;;;;;5031020;28;20512;-77
2021/12/31 03:44:23;;;;;;;10.73;4.88;;;2.00;99.90;;;;;;5024289;28;20030;-77
2021/12/31 03:46:49;;;;;;;8.80;4.72;;;2.00;99.90;;;;;;5029018;28;20104;-77
2021/12/31 03:49:15;;;;;;;7.65;3.72;;;2.00;99.90;;;;;;5033588;28;20022;-80
2021/12/31 03:51:40;;;;;;;10.48;4.82;;;2.00;99.90;;;;;;5036501;28;20401;-80
2021/12/31 03:54:06;;;;;;;9.43;4.00;;;2.00;99.90;;;;;;5033795;28;20025;-78
2021/12/31 03:56:33;;;;;;;9.75;4.93;;;2.00;99.90;;;;;;5033738;28;20036;-80
2021/12/31 03:59:01;;;;;;;10.27;5.35;;;2.00;99.90;;;;;;5036214;28;20116;-79
2021/12/31 04:01:28;;;;;;;10.00;5.07;;;2.00;99.90;;;;;;5036208;28;20082;-79
2021/12/31 04:03:54;;;;;;;9.23;4.82;;;1.90;99.90;;;;;;5036850;28;20075;-79
2021/12/31 04:06:23;;;;;;;11.18;4.82;;;2.00;99.90;;;;;;5036641;28;20075;-78
2021/12/31 04:08:51;;;;;;;7.80;4.38;;;2.00;99.90;;;;;;5033839;28;20064;-79
2021/12/31 04:11:17;;;;;;;9.15;4.97;;;2.00;99.90;;;;;;5022953;28;20072;-77
2021/12/31 04:13:43;;;;;;;11.00;5.97;;;1.90;99.90;;;;;;5033494;28;20397;-78
2021/12/31 04:16:09;;;;;;;10.43;5.78;;;1.90;99.90;;;;;;5032126;28;20025;-77
2021/12/31 04:18:34;;;;;;;12.50;5.95;;;1.90;99.90;;;;;;5035931;28;20036;-79
2021/12/31 04:21:01;;;;;;;10.80;5.68;;;1.90;99.90;;;;;;5034303;28;20512;-80
2021/12/31 04:23:29;;;;;;;9.90;5.35;;;1.90;99.90;;;;;;5034916;28;20481;-80
2021/12/31 04:25:56;;;;;;;9.10;4.55;;;1.90;99.90;;;;;;5036452;28;20025;-78
2021/12/31 04:28:22;;;;;;;9.68;5.10;;;1.90;99.90;;;;;;5033979;28;20021;-79
2021/12/31 04:30:48;;;;;;;9.25;5.18;;;1.90;99.90;;;;;;5034940;28;20109;-79
2021/12/31 04:33:14;;;;;;;10.40;5.07;;;1.80;99.90;;;;;;5030644;28;20053;-77
2021/12/31 04:35:40;;;;;;;9.75;4.40;;;1.80;99.90;;;;;;5034475;28;20033;-80
2021/12/31 04:38:05;;;;;;;10.93;5.22;;;1.80;99.90;;;;;;5035816;28;20033;-80
2021/12/31 04:40:31;;;;;;;9.10;4.68;;;1.80;99.90;;;;;;5035975;28;20033;-78
2021/12/31 04:42:57;;;;;;;10.07;5.68;;;1.80;99.90;;;;;;5051430;28;20041;-80
2021/12/31 04:45:24;;;;;;;9.55;4.95;;;1.80;99.90;;;;;;5035686;28;20079;-80
2021/12/31 04:47:51;;;;;;;9.57;5.65;;;1.80;99.90;;;;;;5034788;28;20049;-80
2021/12/31 04:50:17;;;;;;;8.10;4.65;;;1.80;99.90;;;;;;5035693;28;20504;-80
2021/12/31 04:52:43;;;;;;;7.18;4.10;;;1.80;99.90;;;;;;5034875;28;20116;-79
2021/12/31 04:55:10;;;;;;;7.38;4.00;;;1.80;99.90;;;;;;5035937;28;20055;-80
2021/12/31 04:57:36;;;;;;;9.77;4.18;;;1.80;99.90;;;;;;5035909;28;20501;-80
2021/12/31 05:00:03;;;;;;;8.60;4.70;;;1.80;99.90;;;;;;5038256;28;20030;-80
2021/12/31 05:02:29;;;;;;;8.88;3.85;;;1.80;99.90;;;;;;5043568;28;20048;-80
2021/12/31 05:04:55;;;;;;;8.10;4.07;;;1.80;99.90;;;;;;5040388;28;20049;-80
2021/12/31 05:07:20;;;;;;;7.25;3.63;;;1.90;99.90;;;;;;5040200;28;20048;-79
2021/12/31 05:09:46;;;;;;;7.47;3.83;;;1.90;99.90;;;;;;5039186;28;20030;-80
2021/12/31 05:12:15;;;;;;;6.43;3.35;;;1.90;99.90;;;;;;5039012;28;20060;-80
2021/12/31 05:14:45;;;;;;;5.90;3.15;;;1.90;99.90;;;;;;5039193;28;20022;-80
2021/12/31 05:17:11;;;;;;;6.85;3.22;;;1.90;99.90;;;;;;5039583;28;20048;-80
2021/12/31 05:19:36;;;;;;;6.35;3.20;;;1.90;99.90;;;;;;5038551;28;20420;-80
2021/12/31 05:22:02;;;;;;;5.05;2.53;;;1.90;99.90;;;;;;5040053;28;20605;-80
2021/12/31 05:24:28;;;;;;;5.65;3.30;;;1.90;99.90;;;;;;5039823;28;20042;-79
2021/12/31 05:26:54;;;;;;;7.10;2.97;;;1.90;99.90;;;;;;5040311;28;20485;-80
2021/12/31 05:29:19;;;;;;;6.63;3.72;;;1.90;99.90;;;;;;5039581;28;20059;-80
2021/12/31 05:31:45;;;;;;;8.02;3.72;;;1.90;99.90;;;;;;5037580;28;20541;-80
2021/12/31 05:34:10;;;;;;;6.88;3.55;;;1.90;99.90;;;;;;5034386;28;20099;-79
2021/12/31 05:36:36;;;;;;;6.22;3.53;;;1.90;99.90;;;;;;5033376;28;20532;-80
2021/12/31 05:39:02;;;;;;;6.95;3.50;;;1.90;99.90;;;;;;5039499;28;20072;-80
2021/12/31 05:41:28;;;;;;;7.43;3.80;;;1.90;99.90;;;;;;5032327;28;20029;-79
2021/12/31 05:43:54;;;;;;;12.27;5.13;;;1.90;99.90;;;;;;5020866;28;20482;-79
2021/12/31 05:46:20;;;;;;;8.27;3.80;;;1.90;99.90;;;;;;5025823;28;20025;-79
2021/12/31 05:48:45;;;;;;;9.25;4.35;;;1.90;99.90;;;;;;5039880;28;20017;-79
2021/12/31 05:51:11;;;;;;;9.63;4.45;;;1.90;99.90;;;;;;5033015;28;20072;-77
2021/12/31 05:53:37;;;;;;;10.82;4.78;;;1.90;99.90;;;;;;5048738;28;20030;-77
2021/12/31 05:56:02;;;;;;;11.60;5.20;;;1.90;99.90;;;;;;5034533;28;20052;-77
2021/12/31 05:58:28;;;;;;;10.40;4.28;;;1.90;99.90;;;;;;5036294;28;20040;-77
2021/12/31 06:00:54;;;;;;;7.68;4.03;;;1.90;99.90;;;;;;5033914;28;20029;-77
2021/12/31 06:03:19;;;;;;;8.73;4.03;;;1.90;99.90;;;;;;5034225;28;20029;-80
2021/12/31 06:05:45;;;;;;;7.45;4.00;;;1.90;99.90;;;;;;5039230;28;20022;-80
2021/12/31 06:08:11;;;;;;;6.40;4.05;;;1.90;99.90;;;;;;5039459;28;20032;-80
2021/12/31 06:10:43;;;;;;;7.00;3.67;;;1.90;99.90;;;;;;5037848;28;20033;-78
2021/12/31 06:13:11;;;;;;;9.80;4.38;;;1.90;99.90;;;;;;5037009;28;20120;-77
2021/12/31 06:15:36;;;;;;;8.07;4.20;;;1.90;99.90;;;;;;5035438;28;20033;-78
2021/12/31 06:18:02;;;;;;;8.50;3.97;;;1.90;99.90;;;;;;5035212;28;20473;-77
2021/12/31 06:20:28;;;;;;;7.70;3.25;;;1.90;99.90;;;;;;5035353;28;20033;-77
2021/12/31 06:22:57;;;;;;;6.60;3.33;;;1.90;99.90;;;;;;5034540;28;20026;-78
2021/12/31 06:25:25;;;;;;;5.35;3.25;;;1.90;99.90;;;;;;5035868;28;20013;-77
2021/12/31 06:27:50;;;;;;;5.88;3.38;;;1.90;99.90;;;;;;5036588;28;20029;-78
2021/12/31 06:30:16;;;;;;;7.03;3.90;;;1.90;99.90;;;;;;5035747;28;20033;-78
2021/12/31 06:32:42;;;;;;;10.30;4.88;;;1.90;99.90;;;;;;5036871;28;20026;-80
2021/12/31 06:35:08;;;;;;;28.60;11.93;;;1.90;99.90;;;;;;5039136;28;20112;-79
2021/12/31 06:37:34;;;;;;;48.65;20.95;;;1.90;99.90;;;;;;5038063;28;20067;-78
2021/12/31 06:40:05;;;;;;;48.05;20.15;;;1.90;99.90;;;;;;5035416;28;20116;-77
2021/12/31 06:42:31;;;;;;;43.42;17.98;;;1.90;99.90;;;;;;5034740;28;20075;-78
2021/12/31 06:44:57;;;;;;;27.60;11.77;;;1.90;99.90;;;;;;5035796;28;20021;-77
2021/12/31 06:47:22;;;;;;;20.45;8.95;;;1.90;99.90;;;;;;5033999;28;20033;-77
2021/12/31 06:49:48;;;;;;;16.42;7.15;;;1.80;99.90;;;;;;5034124;28;20083;-78
2021/12/31 06:52:14;;;;;;;10.40;5.50;;;1.80;99.90;;;;;;5034832;28;20482;-77
2021/12/31 06:54:39;;;;;;;11.07;4.95;;;1.80;99.90;;;;;;5035197;28;20029;-77
2021/12/31 06:57:05;;;;;;;13.80;6.45;;;1.80;99.90;;;;;;5033705;28;20034;-77
2021/12/31 06:59:31;;;;;;;15.32;8.32;;;1.80;99.90;;;;;;5035386;28;20100;-78
2021/12/31 07:01:57;;;;;;;14.85;7.88;;;1.80;99.90;;;;;;5026475;28;20072;-77
2021/12/31 07:04:23;;;;;;;13.15;6.93;;;1.70;99.90;;;;;;5033222;28;20091;-77
2021/12/31 07:06:49;;;;;;;7.78;4.47;;;1.80;99.90;;;;;;5033416;28;20482;-77
2021/12/31 07:09:15;;;;;;;13.57;5.75;;;1.80;99.90;;;;;;5034660;28;20068;-77
2021/12/31 07:11:41;;;;;;;17.55;7.70;;;1.80;99.90;;;;;;5032462;28;20473;-77
2021/12/31 07:14:06;;;;;;;20.30;8.05;;;1.80;99.90;;;;;;5035301;28;20049;-77
2021/12/31 07:16:32;;;;;;;17.95;7.80;;;1.80;99.90;;;;;;5034318;28;20021;-77
2021/12/31 07:18:58;;;;;;;9.65;4.68;;;1.70;99.90;;;;;;5034501;28;20025;-77
2021/12/31 07:21:24;;;;;;;7.20;3.70;;;1.80;99.90;;;;;;5033269;28;20476;-77
2021/12/31 07:23:49;;;;;;;10.20;3.90;;;1.80;99.90;;;;;;5033998;28;20032;-77
2021/12/31 07:26:15;;;;;;;5.85;3.42;;;1.80;99.90;;;;;;5033155;28;20036;-79
2021/12/31 07:28:43;;;;;;;6.63;3.97;;;1.80;99.90;;;;;;5036674;28;20030;-78
2021/12/31 07:31:12;;;;;;;10.90;6.00;;;1.90;99.90;;;;;;5034620;28;20028;-80
2021/12/31 07:33:38;;;;;;;14.43;7.28;;;1.90;99.90;;;;;;5030404;28;20044;-79
2021/12/31 07:36:04;;;;;;;20.02;13.25;;;1.90;99.90;;;;;;5036952;28;20389;-80
2021/12/31 07:38:39;;;;;;;17.25;11.32;;;1.90;99.90;;;;;;5037006;28;20083;-80
2021/12/31 07:41:06;;;;;;;13.68;9.40;;;1.90;99.90;;;;;;5021739;28;20022;-80
2021/12/31 07:43:33;;;;;;;13.63;9.40;;;1.90;99.90;;;;;;5031644;28;20037;-80
2021/12/31 07:45:59;;;;;;;13.02;9.25;;;1.90;99.90;;;;;;5036573;28;20075;-80
2021/12/31 07:48:25;;;;;;;11.15;7.32;;;1.90;99.90;;;;;;5036735;28;20026;-79
2021/12/31 07:50:52;;;;;;;11.90;6.70;;;1.90;99.90;;;;;;5036212;28;20029;-79
2021/12/31 07:53:18;;;;;;;11.80;7.38;;;1.90;99.90;;;;;;5030280;28;20033;-79
2021/12/31 07:55:44;;;;;;;13.70;7.15;;;1.90;99.90;;;;;;5035164;28;20022;-79
2021/12/31 07:58:10;;;;;;;12.48;7.68;;;1.90;99.90;;;;;;5018532;28;20030;-79
2021/12/31 08:00:36;;;;;;;12.13;7.50;;;2.00;99.90;;;;;;5026497;28;20079;-79
2021/12/31 08:03:02;;;;;;;16.38;9.40;;;2.00;99.90;;;;;;5035935;28;20473;-78
2021/12/31 08:05:30;;;;;;;17.52;9.30;;;2.00;99.90;;;;;;5036447;28;20475;-79
2021/12/31 08:07:56;;;;;;;21.67;12.35;;;2.00;99.90;;;;;;5036556;28;20017;-78
2021/12/31 08:10:21;;;;;;;26.85;14.57;;;2.00;99.90;;;;;;5035329;28;20025;-78
2021/12/31 08:12:48;;;;;;;24.88;12.57;;;2.00;99.90;;;;;;5036504;28;20029;-78
2021/12/31 08:15:14;;;;;;;19.85;10.60;;;2.00;99.90;;;;;;5036052;28;20071;-79
2021/12/31 08:17:40;;;;;;;15.05;7.75;;;2.10;99.90;;;;;;5035324;28;20025;-79
2021/12/31 08:20:06;;;;;;;11.45;7.63;;;2.10;99.90;;;;;;5034804;28;20022;-79
2021/12/31 08:22:32;;;;;;;15.43;10.32;;;2.10;99.90;;;;;;5036209;28;20025;-79
2021/12/31 08:24:57;;;;;;;14.63;10.43;;;2.10;99.90;;;;;;5035959;28;20100;-78
2021/12/31 08:27:23;;;;;;;14.55;10.93;;;2.10;99.90;;;;;;5034889;28;20029;-78
2021/12/31 08:29:49;;;;;;;12.23;8.10;;;2.10;99.90;;;;;;5035426;28;20033;-78
2021/12/31 08:32:15;;;;;;;10.43;7.13;;;2.10;99.90;;;;;;5035292;28;20036;-79
2021/12/31 08:34:41;;;;;;;8.93;6.25;;;2.10;99.90;;;;;;5038284;28;20432;-78
2021/12/31 08:37:07;;;;;;;9.65;5.63;;;2.10;99.90;;;;;;5040062;28;20021;-79
2021/12/31 08:39:33;;;;;;;8.30;6.03;;;2.10;99.90;;;;;;5036952;28;20029;-78
2021/12/31 08:42:00;;;;;;;8.50;5.72;;;2.10;99.90;;;;;;5038587;28;20117;-78
2021/12/31 08:44:26;;;;;;;8.25;5.18;;;2.10;99.90;;;;;;5039428;28;20033;-79
2021/12/31 08:46:51;;;;;;;8.38;5.25;;;2.10;99.90;;;;;;5039166;28;20453;-79
2021/12/31 08:49:17;;;;;;;11.80;6.07;;;2.20;99.90;;;;;;5037264;28;20048;-78
2021/12/31 08:51:43;;;;;;;11.10;6.32;;;2.20;99.90;;;;;;5040489;28;20025;-77
2021/12/31 08:54:08;;;;;;;9.50;5.43;;;2.20;99.90;;;;;;5039618;28;20068;-77
2021/12/31 08:56:34;;;;;;;12.32;5.10;;;2.20;99.90;;;;;;5039760;28;20026;-80
2021/12/31 08:59:00;;;;;;;8.75;4.65;;;2.30;99.90;;;;;;5033260;28;20112;-79
2021/12/31 09:01:26;;;;;;;7.43;4.40;;;2.30;99.90;;;;;;5035808;28;20470;-80
2021/12/31 09:03:52;;;;;;;7.20;4.07;;;2.30;99.90;;;;;;5039088;28;20029;-79
2021/12/31 09:06:18;;;;;;;8.35;4.47;;;2.40;99.90;;;;;;5040174;28;20045;-78
2021/12/31 09:08:45;;;;;;;6.68;3.72;;;2.40;99.90;;;;;;5035372;28;20033;-79
2021/12/31 09:11:11;;;;;;;7.53;4.43;;;2.50;99.90;;;;;;5031555;28;20496;-78
2021/12/31 09:13:37;;;;;;;6.45;3.88;;;2.50;99.90;;;;;;5037687;28;20108;-78
2021/12/31 09:16:03;;;;;;;6.10;3.58;;;2.50;99.90;;;;;;5039166;28;20056;-79
2021/12/31 09:18:29;;;;;;;6.47;3.45;;;2.60;99.90;;;;;;5038841;28;20033;-79
2021/12/31 09:20:55;;;;;;;7.57;3.95;;;2.60;99.90;;;;;;5039247;28;20447;-79
2021/12/31 09:23:21;;;;;;;6.75;3.55;;;2.60;99.90;;;;;;5037449;28;20163;-78
2021/12/31 09:25:48;;;;;;;6.45;3.65;;;2.70;99.90;;;;;;5039241;28;20022;-78
2021/12/31 09:28:13;;;;;;;6.50;3.53;;;2.70;99.90;;;;;;5039389;28;20032;-78
2021/12/31 09:30:39;;;;;;;6.65;3.85;;;2.70;99.90;;;;;;5020430;28;20030;-80
2021/12/31 09:33:06;;;;;;;6.25;3.55;;;2.80;99.90;;;;;;5034855;28;20052;-80
2021/12/31 09:35:32;;;;;;;6.15;3.30;;;2.80;99.90;;;;;;5019977;28;20025;-80
2021/12/31 09:37:57;;;;;;;5.50;3.20;;;2.80;99.90;;;;;;5019026;28;20375;-81
2021/12/31 09:40:23;;;;;;;6.68;3.15;;;2.80;99.90;;;;;;5034870;28;20079;-81
2021/12/31 09:43:01;;;;;;;5.40;3.08;;;2.80;99.90;;;;;;5038381;28;20041;-79
2021/12/31 09:45:27;;;;;;;5.85;2.70;;;2.90;99.90;;;;;;5036707;28;20076;-80
2021/12/31 09:47:58;;;;;;;4.05;2.38;;;2.90;99.90;;;;;;5052814;28;20028;-79
2021/12/31 09:50:24;;;;;;;5.35;3.17;;;2.90;99.90;;;;;;5023669;28;20049;-80
2021/12/31 09:52:53;;;;;;;5.35;3.03;;;2.90;99.90;;;;;;5033423;28;20065;-80
2021/12/31 09:55:40;;;;;;;5.00;3.40;;;3.00;99.90;;;;;;5039410;28;20026;-80
2021/12/31 09:58:10;;;;;;;5.35;2.67;;;3.00;99.90;;;;;;5038900;28;20096;-80
2021/12/31 10:00:38;;;;;;;6.70;3.38;;;3.00;99.90;;;;;;5039591;28;20100;-81
2021/12/31 10:03:27;;;;;;;5.38;2.70;;;3.10;99.90;;;;;;5026752;28;20084;-79
2021/12/31 10:05:56;;;;;;;5.55;2.90;;;3.10;99.90;;;;;;5019287;28;20022;-80
2021/12/31 10:08:30;;;;;;;5.55;2.92;;;3.10;99.90;;;;;;5018292;28;20028;-81
2021/12/31 10:11:11;;;;;;;7.40;3.22;;;3.10;99.90;;;;;;5019347;28;20030;-81
2021/12/31 10:13:43;;;;;;;6.88;3.67;;;3.20;99.90;;;;;;5018357;28;20097;-80
2021/12/31 10:16:42;;;;;;;7.10;4.15;;;3.20;99.90;;;;;;5026374;28;20033;-80
2021/12/31 10:19:12;;;;;;;7.25;3.65;;;3.20;99.90;;;;;;5026571;28;20041;-79
2021/12/31 10:21:46;;;;;;;6.50;3.85;;;3.20;99.90;;;;;;5037955;28;20153;-77
2021/12/31 10:24:38;;;;;;;6.22;3.58;;;3.20;99.90;;;;;;5036322;28;20037;-79
2021/12/31 10:27:09;;;;;;;6.57;3.65;;;3.20;99.90;;;;;;5038406;28;20025;-78
2021/12/31 10:29:49;;;;;;;6.22;3.50;;;3.20;99.90;;;;;;5038161;28;20022;-77
2021/12/31 10:32:16;;;;;;;6.63;3.38;;;3.30;99.90;;;;;;5037248;28;20021;-78
2021/12/31 10:34:41;;;;;;;6.70;3.55;;;3.30;99.90;;;;;;5038534;28;20033;-78
2021/12/31 10:37:15;;;;;;;6.10;2.70;;;3.30;99.90;;;;;;5038555;28;20029;-79
2021/12/31 10:39:41;;;;;;;6.55;4.10;;;3.40;99.90;;;;;;5038677;28;20033;-78
2021/12/31 10:42:09;;;;;;;9.65;4.47;;;3.40;99.90;;;;;;5050452;28;20083;-79
2021/12/31 10:44:49;;;;;;;6.65;3.72;;;3.40;99.90;;;;;;5019002;28;20164;-78
2021/12/31 10:47:34;;;;;;;7.75;4.72;;;3.50;99.90;;;;;;5033625;28;20081;-78
2021/12/31 10:50:13;;;;;;;9.63;5.38;;;3.50;99.90;;;;;;5018920;28;20028;-79
2021/12/31 10:55:27;;;;;;;11.98;6.28;;;3.60;99.90;;;;;;5038758;28;20025;-79
2021/12/31 10:57:54;;;;;;;11.07;6.50;;;3.60;99.90;;;;;;5036248;28;20025;-77
2021/12/31 11:00:22;;;;;;;10.57;5.53;;;3.60;99.90;;;;;;5049782;28;20025;-78
2021/12/31 11:02:48;;;;;;;14.27;7.80;;;3.70;99.90;;;;;;5047257;28;20057;-78
2021/12/31 11:05:16;;;;;;;13.52;6.75;;;3.70;99.90;;;;;;5037815;28;20022;-77
2021/12/31 11:07:42;;;;;;;9.43;5.15;;;3.70;99.90;;;;;;5037431;28;20032;-77
2021/12/31 11:10:10;;;;;;;7.90;4.65;;;3.70;99.90;;;;;;5041339;28;20155;-78
2021/12/31 11:12:37;;;;;;;6.55;3.80;;;3.70;99.90;;;;;;5036546;28;20082;-79
2021/12/31 11:15:04;;;;;;;83.18;37.55;;;3.70;99.90;;;;;;5045316;28;20025;-80
2021/12/31 11:17:31;;;;;;;65.70;33.95;;;3.70;99.90;;;;;;5055627;28;20082;-79
2021/12/31 11:19:58;;;;;;;64.45;35.80;;;3.80;99.90;;;;;;5058633;28;20027;-81
2021/12/31 11:22:26;;;;;;;42.08;24.63;;;3.80;99.90;;;;;;5043652;28;20033;-80
2021/12/31 11:24:52;;;;;;;30.05;18.35;;;3.80;99.90;;;;;;5049894;28;20028;-81
2021/12/31 11:27:35;;;;;;;14.40;9.18;;;3.90;99.90;;;;;;5046912;28;20105;-80
2021/12/31 11:30:03;;;;;;;9.60;6.45;;;3.90;99.90;;;;;;5036620;28;20024;-80
2021/12/31 11:32:47;;;;;;;7.43;6.15;;;3.90;99.90;;;;;;5037783;28;20055;-80
2021/12/31 11:35:35;;;;;;;5.55;4.80;;;3.90;99.90;;;;;;5041780;28;20029;-80
2021/12/31 11:38:07;;;;;;;6.70;4.57;;;3.90;99.90;;;;;;5053802;28;20512;-80
2021/12/31 11:40:35;;;;;;;4.43;2.40;;;3.90;99.90;;;;;;5054383;28;20036;-79
2021/12/31 11:43:26;;;;;;;4.68;2.80;;;3.90;99.90;;;;;;5043366;28;20032;-80
2021/12/31 11:46:22;;;;;;;5.05;3.17;;;3.90;99.90;;;;;;5018093;28;20478;-81
2021/12/31 11:48:52;;;;;;;5.10;3.70;;;3.90;99.90;;;;;;4998856;28;20029;-81
2021/12/31 11:51:24;;;;;;;6.03;3.15;;;4.00;99.90;;;;;;5038728;28;20018;-81
2021/12/31 11:53:56;;;;;;;3.95;2.63;;;4.00;99.90;;;;;;5038416;28;20105;-80
2021/12/31 11:56:37;;;;;;;3.83;2.30;;;3.90;99.90;;;;;;5037344;28;20053;-81
2021/12/31 11:59:16;;;;;;;4.47;2.47;;;3.90;99.90;;;;;;5037946;28;20025;-80
2021/12/31 12:01:43;;;;;;;4.10;2.30;;;3.90;99.90;;;;;;5043236;28;20750;-80
2021/12/31 12:04:24;;;;;;;4.30;2.83;;;3.90;99.90;;;;;;5031246;28;20029;-80
2021/12/31 12:07:02;;;;;;;4.72;2.58;;;4.00;99.90;;;;;;5034900;28;20025;-81
2021/12/31 12:09:36;;;;;;;3.95;2.38;;;4.00;99.90;;;;;;5035194;28;20025;-81
2021/12/31 12:12:04;;;;;;;4.03;2.53;;;4.00;99.90;;;;;;5035417;28;20026;-79
2021/12/31 12:14:29;;;;;;;5.03;2.95;;;4.00;99.90;;;;;;5036184;28;20473;-80
2021/12/31 12:16:57;;;;;;;3.90;2.47;;;4.00;99.90;;;;;;5034180;28;20025;-80
2021/12/31 12:19:43;;;;;;;4.80;2.70;;;4.00;99.90;;;;;;5036154;28;20025;-81
2021/12/31 12:22:08;;;;;;;4.93;3.10;;;4.00;99.90;;;;;;5035651;28;20037;-80
2021/12/31 12:24:35;;;;;;;5.72;2.97;;;4.00;99.90;;;;;;5042272;28;20036;-80
2021/12/31 12:27:02;;;;;;;4.97;2.88;;;4.00;99.90;;;;;;5044608;28;20018;-80
2021/12/31 12:29:28;;;;;;;4.93;2.97;;;4.00;99.90;;;;;;5037086;28;20057;-80
2021/12/31 12:32:10;;;;;;;3.50;2.42;;;4.10;99.90;;;;;;5024693;28;20370;-80
2021/12/31 12:34:36;;;;;;;3.88;2.80;;;4.10;99.90;;;;;;5034629;28;20022;-81
2021/12/31 12:37:02;;;;;;;4.32;2.90;;;4.10;99.90;;;;;;5037648;28;20029;-81
2021/12/31 12:39:28;;;;;;;3.38;2.53;;;4.10;99.90;;;;;;5034111;28;20050;-80
2021/12/31 12:41:54;;;;;;;4.65;2.65;;;4.10;99.90;;;;;;5035057;28;20021;-81
2021/12/31 12:44:20;;;;;;;4.35;3.03;;;4.10;99.90;;;;;;5045475;28;20029;-80
2021/12/31 12:46:58;;;;;;;4.80;2.90;;;4.10;99.90;;;;;;5046629;28;20386;-81
2021/12/31 12:49:28;;;;;;;4.68;3.08;;;4.10;99.90;;;;;;5035909;28;20482;-81
2021/12/31 12:51:56;;;;;;;7.63;4.15;;;4.10;99.90;;;;;;5036054;28;20030;-81
2021/12/31 12:54:24;;;;;;;8.20;4.35;;;4.10;99.90;;;;;;5020344;28;20057;-81
2021/12/31 12:56:52;;;;;;;6.97;3.90;;;4.10;99.90;;;;;;5023823;28;20033;-80
2021/12/31 12:59:21;;;;;;;7.18;4.25;;;4.20;99.90;;;;;;5036836;28;20024;-81
2021/12/31 13:01:48;;;;;;;5.72;3.55;;;4.30;99.90;;;;;;5035617;28;20025;-80